Time;durP1;ratioP1;P1;durP2;ratioP2;P2;SDS_P1;SDS_P2;PMS_P1;PMS_P2;Temp;Humidity;BMP_temperature;BMP_pressure;BME280_temperature;BME280_humidity;BME280_pressure;Samples;Min_cycle;Max_cycle;Signal;HPM_P1;HPM_P2
2021/04/04 00:01:42;;;;;;;49.75;29.30;;;5.80;84.80;;;;;;5055131;28;20075;-84
2021/04/04 00:04:07;;;;;;;59.30;29.27;;;5.70;85.10;;;;;;5055100;28;20127;-84
2021/04/04 00:06:33;;;;;;;56.58;29.02;;;5.70;85.10;;;;;;5055674;28;20021;-87
2021/04/04 00:08:59;;;;;;;51.50;28.75;;;5.70;85.50;;;;;;5055386;28;20032;-86
2021/04/04 00:11:25;;;;;;;48.05;27.42;;;5.70;85.60;;;;;;5055261;28;20025;-85
2021/04/04 00:13:51;;;;;;;51.88;29.15;;;5.80;85.50;;;;;;5055321;28;20029;-85
2021/04/04 00:16:19;;;;;;;51.72;29.63;;;5.80;86.00;;;;;;5056551;28;20078;-85
2021/04/04 00:18:45;;;;;;;51.47;27.77;;;5.70;85.70;;;;;;5055135;28;20538;-85
2021/04/04 00:21:11;;;;;;;51.03;27.42;;;5.80;85.70;;;;;;5055102;28;20489;-85
2021/04/04 00:23:37;;;;;;;53.92;28.27;;;5.70;85.60;;;;;;5055073;28;20021;-85
2021/04/04 00:26:03;;;;;;;49.92;28.80;;;5.70;85.50;;;;;;5054895;28;20028;-84
2021/04/04 00:28:29;;;;;;;52.13;27.30;;;5.80;85.60;;;;;;5054625;28;20033;-85
2021/04/04 00:30:55;;;;;;;52.15;28.60;;;5.70;85.70;;;;;;5054440;28;20045;-85
2021/04/04 00:33:21;;;;;;;48.13;26.48;;;5.70;85.70;;;;;;5055997;28;20033;-85
2021/04/04 00:35:47;;;;;;;53.88;29.52;;;5.80;86.00;;;;;;5054604;28;20032;-85
2021/04/04 00:38:14;;;;;;;53.63;28.70;;;5.70;86.60;;;;;;5054670;28;20017;-85
2021/04/04 00:40:40;;;;;;;46.47;28.00;;;5.60;86.40;;;;;;5054733;28;20389;-85
2021/04/04 00:43:06;;;;;;;42.42;25.08;;;5.60;86.40;;;;;;5054655;28;20115;-85
2021/04/04 00:45:35;;;;;;;46.97;25.25;;;5.60;85.90;;;;;;5055997;28;20025;-85
2021/04/04 00:48:02;;;;;;;64.00;34.05;;;5.70;85.50;;;;;;5055797;28;20017;-84
2021/04/04 00:50:34;;;;;;;53.78;28.85;;;5.60;84.20;;;;;;5055270;28;20056;-84
2021/04/04 00:53:01;;;;;;;51.83;27.55;;;5.60;84.50;;;;;;5054482;28;20445;-85
2021/04/04 00:55:27;;;;;;;51.75;29.83;;;5.70;84.30;;;;;;5054237;28;20108;-85
2021/04/04 00:57:54;;;;;;;51.80;29.30;;;5.70;84.30;;;;;;5054658;28;20021;-85
2021/04/04 01:00:27;;;;;;;53.33;29.80;;;5.80;84.20;;;;;;5053034;28;20025;-85
2021/04/04 01:02:55;;;;;;;55.35;30.65;;;5.70;84.60;;;;;;5054387;28;20028;-85
2021/04/04 01:05:26;;;;;;;49.65;28.10;;;5.70;85.00;;;;;;5054393;28;20364;-85
2021/04/04 01:07:56;;;;;;;51.60;27.23;;;5.70;85.00;;;;;;5054149;28;20036;-85
2021/04/04 01:10:22;;;;;;;55.05;29.05;;;5.60;84.80;;;;;;5053900;28;20509;-84
2021/04/04 01:13:12;;;;;;;58.30;29.48;;;5.60;85.10;;;;;;5055310;28;20025;-85
2021/04/04 01:15:50;;;;;;;48.97;28.13;;;5.60;85.30;;;;;;5055039;28;20038;-84
2021/04/04 01:18:37;;;;;;;47.45;26.90;;;5.50;85.30;;;;;;5055185;28;20026;-85
2021/04/04 01:21:25;;;;;;;47.60;26.90;;;5.60;85.20;;;;;;5053644;28;20025;-85
2021/04/04 01:24:02;;;;;;;45.50;26.17;;;5.50;85.30;;;;;;5053452;28;20032;-84
2021/04/04 01:26:49;;;;;;;47.55;28.17;;;5.50;85.30;;;;;;5054100;28;20086;-84
2021/04/04 01:29:20;;;;;;;50.25;28.77;;;5.50;85.10;;;;;;5055083;28;20029;-84
2021/04/04 01:31:50;;;;;;;51.05;27.58;;;5.50;84.50;;;;;;5053686;28;20106;-84
2021/04/04 01:34:19;;;;;;;53.83;28.75;;;5.40;84.80;;;;;;5054672;28;20024;-85
2021/04/04 01:36:48;;;;;;;50.65;27.35;;;5.40;85.40;;;;;;5053414;28;20033;-85
2021/04/04 01:39:15;;;;;;;57.88;31.65;;;5.40;85.10;;;;;;5053383;28;20098;-84
2021/04/04 01:41:42;;;;;;;54.40;29.02;;;5.40;84.60;;;;;;5054464;28;20025;-85
2021/04/04 01:44:13;;;;;;;50.10;27.83;;;5.40;84.50;;;;;;5054481;28;20097;-84
2021/04/04 01:46:41;;;;;;;48.00;26.45;;;5.40;84.40;;;;;;5053525;28;20032;-85
2021/04/04 01:49:07;;;;;;;53.55;28.00;;;5.40;84.60;;;;;;5053221;28;20028;-84
2021/04/04 01:51:33;;;;;;;46.53;26.20;;;5.30;84.60;;;;;;5053062;28;20025;-84
2021/04/04 01:54:02;;;;;;;43.42;25.63;;;5.30;84.50;;;;;;5054190;28;20421;-84
2021/04/04 01:56:28;;;;;;;44.00;25.33;;;5.30;84.40;;;;;;5054135;28;20033;-84
2021/04/04 01:58:55;;;;;;;36.47;21.77;;;5.30;84.60;;;;;;5053096;28;20459;-84
2021/04/04 02:01:22;;;;;;;40.83;22.85;;;5.30;84.50;;;;;;5052812;28;20048;-84
2021/04/04 02:03:48;;;;;;;40.17;22.23;;;5.30;84.70;;;;;;5052835;28;20048;-84
2021/04/04 02:06:18;;;;;;;48.30;23.60;;;5.30;84.60;;;;;;5052888;28;20074;-84
2021/04/04 02:08:45;;;;;;;42.38;21.17;;;5.30;85.50;;;;;;5053886;28;20432;-85
2021/04/04 02:11:15;;;;;;;36.08;20.83;;;5.30;85.60;;;;;;5052404;28;20433;-84
2021/04/04 02:13:42;;;;;;;38.03;21.83;;;5.20;85.80;;;;;;5054573;28;20025;-84
2021/04/04 02:16:10;;;;;;;33.70;20.15;;;5.20;85.60;;;;;;5054132;28;20064;-84
2021/04/04 02:18:36;;;;;;;36.33;21.23;;;5.30;85.60;;;;;;5052770;28;20016;-84
2021/04/04 02:21:03;;;;;;;43.30;23.80;;;5.30;85.40;;;;;;5052560;28;20036;-84
2021/04/04 02:23:29;;;;;;;36.22;22.60;;;5.30;85.80;;;;;;5052699;28;20048;-84
2021/04/04 02:25:57;;;;;;;40.00;23.48;;;5.30;85.80;;;;;;5052467;28;20486;-84
2021/04/04 02:28:23;;;;;;;37.97;22.50;;;5.30;85.80;;;;;;5052533;28;20025;-84
2021/04/04 02:30:50;;;;;;;42.45;24.40;;;5.30;85.90;;;;;;5052315;28;20087;-84
2021/04/04 02:33:28;;;;;;;40.33;24.23;;;5.30;86.10;;;;;;5052759;28;20029;-84
2021/04/04 02:35:58;;;;;;;43.92;24.73;;;5.30;86.30;;;;;;5052421;28;20025;-84
2021/04/04 02:38:30;;;;;;;42.47;22.55;;;5.30;86.30;;;;;;5052588;28;20426;-84
2021/04/04 02:40:57;;;;;;;40.97;23.05;;;5.30;86.40;;;;;;5053691;28;20033;-84
2021/04/04 02:43:27;;;;;;;43.75;24.20;;;5.30;86.40;;;;;;5052545;28;20107;-84
2021/04/04 02:45:54;;;;;;;;;;;5.30;86.70;;;;;;5052881;28;20495;-84
2021/04/04 02:48:30;;;;;;;36.70;22.70;;;5.30;86.60;;;;;;5052432;28;19913;-84
2021/04/04 02:50:59;;;;;;;38.05;21.55;;;5.30;86.20;;;;;;5052412;28;20049;-84
2021/04/04 02:53:27;;;;;;;40.20;24.25;;;5.30;86.10;;;;;;5052414;28;20116;-84
2021/04/04 02:55:56;;;;;;;38.85;22.27;;;5.40;86.00;;;;;;5051904;28;20029;-84
2021/04/04 02:58:25;;;;;;;35.17;21.85;;;5.30;85.70;;;;;;5052412;28;20120;-84
2021/04/04 03:00:55;;;;;;;36.85;21.75;;;5.40;85.60;;;;;;5052106;28;20018;-84
2021/04/04 03:03:22;;;;;;;37.15;21.58;;;5.40;85.60;;;;;;5052387;28;20074;-84
2021/04/04 03:05:48;;;;;;;38.50;22.77;;;5.40;85.60;;;;;;5052287;28;20025;-84
2021/04/04 03:08:15;;;;;;;45.45;25.92;;;5.40;85.60;;;;;;5053374;28;20092;-84
2021/04/04 03:10:42;;;;;;;53.28;27.77;;;5.40;86.20;;;;;;5052533;28;20120;-84
2021/04/04 03:13:09;;;;;;;50.65;28.35;;;5.30;86.20;;;;;;5052192;28;20052;-84
2021/04/04 03:15:37;;;;;;;47.53;27.30;;;5.30;86.40;;;;;;5052085;28;20493;-85
2021/04/04 03:18:04;;;;;;;45.83;26.73;;;5.30;86.40;;;;;;5051990;28;20026;-84
2021/04/04 03:20:29;;;;;;;44.80;26.23;;;5.20;86.20;;;;;;5051612;28;20029;-84
2021/04/04 03:22:57;;;;;;;40.80;23.75;;;5.20;86.10;;;;;;5052047;28;20078;-84
2021/04/04 03:25:25;;;;;;;43.67;25.60;;;5.20;86.00;;;;;;5055950;28;20029;-84
2021/04/04 03:27:51;;;;;;;41.45;24.98;;;5.30;86.10;;;;;;5057380;28;20099;-84
2021/04/04 03:30:42;;;;;;;49.70;25.73;;;5.30;86.20;;;;;;5056883;28;20037;-84
2021/04/04 03:33:08;;;;;;;48.65;26.48;;;5.30;85.90;;;;;;5056158;28;20033;-84
2021/04/04 03:35:35;;;;;;;49.75;27.38;;;5.40;85.50;;;;;;5057824;28;20031;-84
2021/04/04 03:38:02;;;;;;;60.22;31.90;;;5.40;85.40;;;;;;5056958;28;20017;-84
2021/04/04 03:40:29;;;;;;;54.95;31.10;;;5.40;85.40;;;;;;5056917;28;20044;-84
2021/04/04 03:42:57;;;;;;;57.22;31.23;;;5.40;86.00;;;;;;5055621;28;20036;-84
2021/04/04 03:45:25;;;;;;;53.00;28.17;;;5.40;85.50;;;;;;5057040;28;20021;-84
2021/04/04 03:47:52;;;;;;;64.90;32.95;;;5.40;85.30;;;;;;5056751;28;20383;-84
2021/04/04 03:50:20;;;;;;;62.00;33.08;;;5.40;85.50;;;;;;5056720;28;20071;-84
2021/04/04 03:52:47;;;;;;;58.15;30.67;;;5.40;85.50;;;;;;5055413;28;20032;-84
2021/04/04 03:55:16;;;;;;;54.63;31.30;;;5.40;86.20;;;;;;5055452;28;20055;-84
2021/04/04 03:57:43;;;;;;;50.60;26.58;;;5.40;85.80;;;;;;5055428;28;20024;-84
2021/04/04 04:00:10;;;;;;;54.15;28.23;;;5.40;85.50;;;;;;5055313;28;20028;-84
2021/04/04 04:02:37;;;;;;;48.15;27.25;;;5.50;85.40;;;;;;5054980;28;20059;-84
2021/04/04 04:05:05;;;;;;;49.05;27.95;;;5.40;85.40;;;;;;5055218;28;20036;-84
2021/04/04 04:07:31;;;;;;;56.90;32.17;;;5.50;85.50;;;;;;5055039;28;20112;-84
2021/04/04 04:10:12;;;;;;;56.10;32.63;;;5.50;85.00;;;;;;5132221;27;20381;-85
2021/04/04 04:12:39;;;;;;;52.05;30.00;;;5.50;85.90;;;;;;5131052;27;20405;-86
2021/04/04 04:15:06;;;;;;;56.33;30.30;;;5.50;85.50;;;;;;5131887;27;20047;-85
2021/04/04 04:17:33;;;;;;;49.03;28.05;;;5.50;85.30;;;;;;5130656;27;20031;-85
2021/04/04 04:20:00;;;;;;;46.20;26.17;;;5.60;85.70;;;;;;5130893;27;20066;-85
2021/04/04 04:22:26;;;;;;;50.22;28.48;;;5.60;85.70;;;;;;5130915;27;20023;-86
2021/04/04 04:24:53;;;;;;;49.15;27.17;;;5.70;85.40;;;;;;5131040;27;20388;-86
2021/04/04 04:27:20;;;;;;;45.78;24.40;;;5.70;85.50;;;;;;5132201;27;20469;-85
2021/04/04 04:29:48;;;;;;;39.22;25.08;;;5.70;85.30;;;;;;5130967;27;20032;-86
2021/04/04 04:32:16;;;;;;;38.20;22.70;;;5.80;85.00;;;;;;5132072;27;20064;-86
2021/04/04 04:34:44;;;;;;;41.63;25.15;;;5.80;85.00;;;;;;5130916;27;20023;-85
2021/04/04 04:37:12;;;;;;;44.17;24.75;;;5.90;84.90;;;;;;5130698;28;20073;-85
2021/04/04 04:39:39;;;;;;;52.72;28.48;;;6.00;84.80;;;;;;5130386;27;20023;-84
2021/04/04 04:42:09;;;;;;;46.15;27.05;;;6.10;84.50;;;;;;5130384;28;20026;-80
2021/04/04 04:44:36;;;;;;;75.38;50.55;;;6.20;84.40;;;;;;5130210;28;20027;-80
2021/04/04 04:47:02;;;;;;;63.08;35.15;;;6.20;84.20;;;;;;5130033;28;20050;-80
2021/04/04 04:49:29;;;;;;;59.65;32.75;;;6.40;83.90;;;;;;5130034;28;20019;-80
2021/04/04 04:51:55;;;;;;;60.35;33.97;;;6.40;84.30;;;;;;5130052;28;20023;-80
2021/04/04 04:54:20;;;;;;;63.30;37.92;;;6.50;83.50;;;;;;5129987;28;20023;-80
2021/04/04 04:56:48;;;;;;;64.05;36.75;;;6.50;83.30;;;;;;5131346;27;20041;-80
2021/04/04 04:59:14;;;;;;;59.75;33.55;;;6.60;83.10;;;;;;5129615;28;20039;-80
2021/04/04 05:01:43;;;;;;;63.55;34.28;;;6.70;83.30;;;;;;5129836;27;20034;-80
2021/04/04 05:04:09;;;;;;;67.78;36.15;;;6.70;83.20;;;;;;5131018;27;20073;-79
2021/04/04 05:06:36;;;;;;;60.28;33.35;;;6.80;83.30;;;;;;5129686;28;20019;-80
2021/04/04 05:09:05;;;;;;;53.45;31.40;;;6.90;83.40;;;;;;5129336;27;20051;-80
2021/04/04 05:11:33;;;;;;;42.55;25.80;;;6.90;83.20;;;;;;5130535;27;20030;-80
2021/04/04 05:13:59;;;;;;;46.50;26.08;;;7.00;82.90;;;;;;5129153;28;20068;-80
2021/04/04 05:16:29;;;;;;;37.97;21.08;;;7.10;82.50;;;;;;5128317;27;20019;-80
2021/04/04 05:18:54;;;;;;;33.28;19.13;;;7.20;82.00;;;;;;5128507;28;20026;-79
2021/04/04 05:21:24;;;;;;;27.05;16.08;;;7.30;81.70;;;;;;5116890;28;20032;-79
2021/04/04 05:24:01;;;;;;;25.77;14.77;;;7.30;81.30;;;;;;5113974;28;20030;-79
2021/04/04 05:26:28;;;;;;;25.45;14.32;;;7.40;81.30;;;;;;5115208;28;20473;-79
2021/04/04 05:28:55;;;;;;;26.50;15.10;;;7.50;80.80;;;;;;5115466;28;20062;-79
2021/04/04 05:31:21;;;;;;;25.73;14.93;;;7.50;80.70;;;;;;5115054;28;20054;-79
2021/04/04 05:33:48;;;;;;;22.27;12.15;;;7.50;80.00;;;;;;5115060;28;20024;-80
2021/04/04 05:36:13;;;;;;;23.15;13.30;;;7.60;80.60;;;;;;5116227;28;20028;-79
2021/04/04 05:38:39;;;;;;;22.08;13.00;;;7.60;80.40;;;;;;5114874;28;20019;-79
2021/04/04 05:41:06;;;;;;;17.08;11.63;;;7.70;80.20;;;;;;5115161;28;20028;-80
2021/04/04 05:43:37;;;;;;;22.15;12.43;;;7.70;80.10;;;;;;5117017;28;20023;-79
2021/04/04 05:46:09;;;;;;;20.75;12.98;;;7.80;80.00;;;;;;5116525;28;20027;-80
2021/04/04 05:48:39;;;;;;;21.70;12.43;;;7.70;79.70;;;;;;5114835;28;20028;-79
2021/04/04 05:51:27;;;;;;;33.55;19.38;;;7.80;79.70;;;;;;5114566;28;20058;-79
2021/04/04 05:53:59;;;;;;;35.00;19.60;;;7.80;79.60;;;;;;5114714;28;20034;-79
2021/04/04 05:56:27;;;;;;;25.85;16.15;;;7.80;79.80;;;;;;5114543;28;20065;-80
2021/04/04 05:59:04;;;;;;;27.95;13.82;;;7.80;80.10;;;;;;5114993;28;20043;-80
2021/04/04 06:01:32;;;;;;;22.17;13.93;;;7.90;79.40;;;;;;5114506;28;20030;-80
2021/04/04 06:04:11;;;;;;;24.63;13.95;;;7.90;78.70;;;;;;5116504;27;20449;-87
2021/04/04 06:06:58;;;;;;;25.67;15.18;;;8.00;77.70;;;;;;5116320;27;20023;-85
2021/04/04 06:09:57;;;;;;;24.65;14.07;;;7.90;77.00;;;;;;5114459;28;20120;-86
2021/04/04 06:12:31;;;;;;;24.30;14.55;;;8.00;77.50;;;;;;5116052;28;20071;-85
2021/04/04 06:15:19;;;;;;;27.15;16.13;;;7.90;77.70;;;;;;5115073;28;20119;-86
2021/04/04 06:18:06;;;;;;;25.50;15.90;;;8.00;76.90;;;;;;5116287;28;20030;-87
2021/04/04 06:21:02;;;;;;;31.02;16.58;;;8.10;76.90;;;;;;5114684;28;20023;-86
2021/04/04 06:23:45;;;;;;;26.92;16.75;;;8.00;77.00;;;;;;5114985;28;20469;-85
2021/04/04 06:26:19;;;;;;;30.48;17.35;;;8.00;77.40;;;;;;5114749;28;20016;-85
2021/04/04 06:28:59;;;;;;;29.33;16.35;;;8.00;77.20;;;;;;5115596;28;20022;-85
2021/04/04 06:31:52;;;;;;;33.33;18.58;;;8.00;77.50;;;;;;5113785;28;20020;-83
2021/04/04 06:34:41;;;;;;;28.25;16.92;;;8.00;77.70;;;;;;5114538;28;20380;-85
2021/04/04 06:37:25;;;;;;;32.15;18.25;;;8.00;78.10;;;;;;5101002;28;20392;-84
2021/04/04 06:40:01;;;;;;;27.95;16.90;;;8.10;78.60;;;;;;5115038;28;20055;-85
2021/04/04 06:42:36;;;;;;;30.23;17.90;;;8.10;78.40;;;;;;5114101;28;20096;-85
2021/04/04 06:45:17;;;;;;;29.27;16.88;;;8.20;78.50;;;;;;5114343;28;20108;-85
2021/04/04 06:48:24;;;;;;;27.85;16.92;;;8.30;78.40;;;;;;5114379;28;20020;-85
2021/04/04 06:51:00;;;;;;;27.77;16.35;;;8.30;78.10;;;;;;5038628;28;20025;-85
2021/04/04 06:53:50;;;;;;;23.10;15.27;;;8.40;78.80;;;;;;5088995;28;20039;-85
2021/04/04 06:56:44;;;;;;;28.02;16.02;;;8.50;78.10;;;;;;5093754;28;20492;-85
2021/04/04 06:59:24;;;;;;;25.48;15.85;;;8.60;78.00;;;;;;5057857;28;20085;-85
2021/04/04 07:02:07;;;;;;;28.93;14.73;;;8.70;76.10;;;;;;5095545;28;20477;-83
2021/04/04 07:04:50;;;;;;;25.33;14.98;;;8.90;76.20;;;;;;5113254;28;20264;-85
2021/04/04 07:07:41;;;;;;;27.42;14.55;;;8.90;75.90;;;;;;5113891;28;20111;-85
2021/04/04 07:10:26;;;;;;;30.15;15.38;;;9.00;75.80;;;;;;5113416;28;20052;-84
2021/04/04 07:13:26;;;;;;;24.90;13.82;;;9.20;75.10;;;;;;5113663;28;20085;-84
2021/04/04 07:16:02;;;;;;;21.23;11.98;;;9.40;75.10;;;;;;5114620;28;20027;-84
2021/04/04 07:18:55;;;;;;;18.75;10.82;;;9.60;71.40;;;;;;5114796;28;20114;-84
2021/04/04 07:21:52;;;;;;;18.13;10.98;;;9.70;69.30;;;;;;5113041;28;20076;-85
2021/04/04 07:24:49;;;;;;;16.45;9.88;;;9.70;66.70;;;;;;5092805;28;20031;-83
2021/04/04 07:27:42;;;;;;;19.90;11.35;;;9.80;68.00;;;;;;5106414;28;20733;-84
2021/04/04 07:30:35;;;;;;;19.02;10.73;;;9.90;64.50;;;;;;5092441;28;20043;-84
2021/04/04 07:33:28;;;;;;;16.17;10.57;;;10.00;66.80;;;;;;5097684;28;20026;-84
2021/04/04 07:36:31;;;;;;;15.88;10.07;;;10.10;66.70;;;;;;5112916;28;20512;-83
2021/04/04 07:39:18;;;;;;;17.70;10.20;;;10.20;66.70;;;;;;5112263;28;20374;-83
2021/04/04 07:42:23;;;;;;;18.65;9.88;;;10.30;63.30;;;;;;5112925;28;20032;-84
2021/04/04 07:44:59;;;;;;;16.77;10.23;;;10.30;62.90;;;;;;5112428;28;20110;-83
2021/04/04 07:47:44;;;;;;;16.10;9.55;;;10.20;63.90;;;;;;5112739;28;20164;-84
2021/04/04 07:50:12;;;;;;;13.88;8.43;;;10.20;61.10;;;;;;5113910;28;20027;-83
2021/04/04 07:53:14;;;;;;;14.63;8.23;;;10.30;62.10;;;;;;5113171;28;20046;-82
2021/04/04 07:56:06;;;;;;;11.65;7.75;;;10.40;60.30;;;;;;5103692;28;20079;-82
2021/04/04 07:58:55;;;;;;;13.30;8.13;;;10.50;60.10;;;;;;5112800;28;20027;-83
2021/04/04 08:01:26;;;;;;;13.43;8.43;;;10.50;60.40;;;;;;5113825;28;20028;-85
2021/04/04 08:04:08;;;;;;;17.25;8.98;;;10.50;56.80;;;;;;5113707;28;20027;-83
2021/04/04 08:06:48;;;;;;;18.98;11.25;;;10.40;54.50;;;;;;5112203;28;20063;-83
2021/04/04 08:09:30;;;;;;;26.98;14.68;;;10.50;57.70;;;;;;5111709;28;20044;-83
2021/04/04 08:12:19;;;;;;;29.08;16.13;;;10.50;61.50;;;;;;5112120;28;20031;-84
2021/04/04 08:14:54;;;;;;;28.48;16.15;;;10.50;62.60;;;;;;5112069;28;20476;-80
2021/04/04 08:17:20;;;;;;;27.45;14.82;;;10.40;61.80;;;;;;5113402;28;20027;-79
2021/04/04 08:20:11;;;;;;;22.85;13.63;;;10.30;62.10;;;;;;5112085;28;20028;-82
2021/04/04 08:22:41;;;;;;;22.35;13.02;;;10.20;62.30;;;;;;5094396;28;20031;-82
2021/04/04 08:25:16;;;;;;;16.70;10.43;;;10.20;60.30;;;;;;5112213;28;20023;-83
2021/04/04 08:27:50;;;;;;;23.83;15.32;;;10.20;59.70;;;;;;5113398;28;20023;-82
2021/04/04 08:30:40;;;;;;;20.88;10.90;;;10.00;62.20;;;;;;5112142;28;20110;-83
2021/04/04 08:33:14;;;;;;;14.02;9.27;;;9.90;58.90;;;;;;5092055;28;20412;-82
2021/04/04 08:35:43;;;;;;;13.68;7.90;;;10.00;60.30;;;;;;5100376;28;20034;-81
2021/04/04 08:38:10;;;;;;;11.10;7.50;;;10.10;55.90;;;;;;5112314;28;20064;-80
2021/04/04 08:40:40;;;;;;;11.00;7.25;;;10.10;55.70;;;;;;5112233;28;20028;-80
2021/04/04 08:43:07;;;;;;;8.47;5.07;;;10.20;52.80;;;;;;5119749;28;20024;-76
2021/04/04 08:46:00;;;;;;;10.05;6.00;;;10.20;49.90;;;;;;5133005;28;20263;-83
2021/04/04 08:48:27;;;;;;;9.30;6.40;;;10.20;50.80;;;;;;5132603;28;20072;-79
2021/04/04 08:50:57;;;;;;;9.82;6.45;;;10.20;51.60;;;;;;5132866;28;20100;-83
2021/04/04 08:53:26;;;;;;;10.70;7.55;;;10.30;52.90;;;;;;5132827;28;20499;-81
2021/04/04 08:55:53;;;;;;;12.98;9.02;;;10.30;52.40;;;;;;5134664;27;20027;-76
2021/04/04 08:58:33;;;;;;;10.20;6.38;;;10.30;51.50;;;;;;5137850;27;20414;-77
2021/04/04 09:01:05;;;;;;;9.13;5.65;;;10.30;49.60;;;;;;5119354;27;20385;-77
2021/04/04 09:03:34;;;;;;;14.52;8.30;;;10.40;49.10;;;;;;5115920;28;20046;-76
2021/04/04 09:06:05;;;;;;;8.52;5.18;;;10.50;51.10;;;;;;5115531;28;20377;-76
2021/04/04 09:08:32;;;;;;;9.07;6.15;;;10.60;50.00;;;;;;5116981;28;20051;-77
2021/04/04 09:11:00;;;;;;;8.73;5.78;;;10.70;50.60;;;;;;5117376;27;20024;-77
2021/04/04 09:13:32;;;;;;;11.05;6.60;;;10.70;50.80;;;;;;5115511;28;20020;-77
2021/04/04 09:16:01;;;;;;;9.90;6.80;;;10.70;49.50;;;;;;5115380;28;20035;-77
2021/04/04 09:18:30;;;;;;;12.55;7.45;;;10.80;50.90;;;;;;5115380;28;20023;-77
2021/04/04 09:21:06;;;;;;;10.10;6.43;;;10.80;49.80;;;;;;5114776;28;20024;-77
2021/04/04 09:23:34;;;;;;;8.98;5.57;;;10.80;49.00;;;;;;5114292;28;20465;-76
2021/04/04 09:26:06;;;;;;;7.30;5.00;;;10.90;49.70;;;;;;5137311;27;20038;-77
2021/04/04 09:28:38;;;;;;;7.85;4.97;;;10.90;49.40;;;;;;5114405;28;20019;-75
2021/04/04 09:31:08;;;;;;;6.30;4.50;;;11.00;48.30;;;;;;5116066;28;20023;-74
2021/04/04 09:33:35;;;;;;;13.13;6.70;;;11.10;48.00;;;;;;5129503;27;20047;-76
2021/04/04 09:36:07;;;;;;;16.27;8.32;;;11.20;49.50;;;;;;5105626;27;20024;-76
2021/04/04 09:38:40;;;;;;;10.63;6.45;;;11.30;49.00;;;;;;5120741;27;20027;-76
2021/04/04 09:41:07;;;;;;;9.60;6.03;;;11.30;49.40;;;;;;5116886;27;20115;-77
2021/04/04 09:43:51;;;;;;;9.52;5.90;;;11.30;49.90;;;;;;5116141;28;20031;-78
2021/04/04 09:46:17;;;;;;;10.32;6.38;;;11.50;49.70;;;;;;5115893;28;20065;-78
2021/04/04 09:48:42;;;;;;;10.18;6.45;;;11.40;47.30;;;;;;5115661;28;20074;-75
2021/04/04 09:51:16;;;;;;;9.10;5.50;;;11.50;49.00;;;;;;5113607;28;20026;-75
2021/04/04 09:53:43;;;;;;;7.50;4.68;;;11.60;49.60;;;;;;5114403;28;20066;-75
2021/04/04 09:56:12;;;;;;;9.05;6.28;;;11.60;47.90;;;;;;5114499;28;20649;-75
2021/04/04 09:58:40;;;;;;;11.30;6.05;;;11.40;45.90;;;;;;5114280;28;20083;-76
2021/04/04 10:01:15;;;;;;;5.88;4.10;;;11.30;46.00;;;;;;5115257;28;20031;-75
2021/04/04 10:03:41;;;;;;;7.32;3.63;;;11.30;46.00;;;;;;5114109;28;20380;-81
2021/04/04 10:06:12;;;;;;;6.97;3.58;;;11.40;46.40;;;;;;5113970;28;20023;-80
2021/04/04 10:08:51;;;;;;;5.65;3.90;;;11.50;47.70;;;;;;5115237;28;20044;-78
2021/04/04 10:11:18;;;;;;;6.30;4.22;;;11.60;47.90;;;;;;5114300;28;20020;-80
2021/04/04 10:13:44;;;;;;;8.93;4.53;;;11.80;48.30;;;;;;5114869;28;20016;-78
2021/04/04 10:16:23;;;;;;;9.82;5.03;;;11.70;45.40;;;;;;5113958;28;20034;-81
2021/04/04 10:19:09;;;;;;;10.55;6.07;;;11.70;44.80;;;;;;5114295;28;20019;-83
2021/04/04 10:21:37;;;;;;;15.30;9.93;;;11.70;45.30;;;;;;5113386;28;20027;-78
2021/04/04 10:24:29;;;;;;;27.10;18.45;;;11.80;46.10;;;;;;5114021;28;20024;-80
2021/04/04 10:27:17;;;;;;;5.88;4.40;;;11.70;44.40;;;;;;5115323;28;20015;-80
2021/04/04 10:29:44;;;;;;;7.22;4.32;;;11.80;45.80;;;;;;5112374;28;20126;-79
2021/04/04 10:32:10;;;;;;;4.95;3.85;;;11.80;45.40;;;;;;5115352;28;20027;-80
2021/04/04 10:34:43;;;;;;;4.82;4.03;;;11.80;45.10;;;;;;5114449;28;20073;-80
2021/04/04 10:37:10;;;;;;;10.98;4.90;;;11.80;45.50;;;;;;5115018;28;20069;-76
2021/04/04 10:39:37;;;;;;;9.32;5.43;;;11.90;45.90;;;;;;5113648;28;20047;-76
2021/04/04 10:42:13;;;;;;;6.50;5.07;;;11.90;46.80;;;;;;5115153;28;20076;-76
2021/04/04 10:44:39;;;;;;;6.65;4.15;;;11.90;46.00;;;;;;5113602;28;20442;-76
2021/04/04 10:47:20;;;;;;;6.45;4.35;;;11.90;46.60;;;;;;5113670;28;20076;-76
2021/04/04 10:49:48;;;;;;;7.53;4.75;;;12.00;46.80;;;;;;5113201;28;20043;-74
2021/04/04 10:52:14;;;;;;;7.63;4.80;;;12.00;45.90;;;;;;5114065;28;20081;-74
2021/04/04 10:54:41;;;;;;;7.38;4.85;;;12.00;46.80;;;;;;5114889;28;20027;-77
2021/04/04 10:57:09;;;;;;;7.45;4.28;;;12.00;46.30;;;;;;5113085;28;20019;-75
2021/04/04 10:59:35;;;;;;;7.07;5.03;;;12.00;46.40;;;;;;5115249;28;20357;-76
2021/04/04 11:02:02;;;;;;;9.43;6.13;;;11.90;46.00;;;;;;5113394;28;20480;-75
2021/04/04 11:04:32;;;;;;;8.65;5.72;;;11.70;48.20;;;;;;5114336;28;20038;-76
2021/04/04 11:07:01;;;;;;;10.50;5.45;;;11.60;50.10;;;;;;5113393;28;20028;-75
2021/04/04 11:09:27;;;;;;;9.27;5.57;;;11.50;50.20;;;;;;5113086;28;20047;-76
2021/04/04 11:11:55;;;;;;;11.38;5.82;;;11.30;50.80;;;;;;5114570;27;20033;-77
2021/04/04 11:14:24;;;;;;;10.32;6.28;;;11.30;51.70;;;;;;5134196;27;20027;-76
2021/04/04 11:16:55;;;;;;;9.00;6.00;;;11.30;52.40;;;;;;5134325;27;20023;-76
2021/04/04 11:19:23;;;;;;;8.10;5.50;;;11.50;52.60;;;;;;5133475;27;20118;-77
2021/04/04 11:21:50;;;;;;;7.55;5.20;;;11.50;52.70;;;;;;5133191;27;20031;-76
2021/04/04 11:24:19;;;;;;;7.93;4.60;;;11.60;52.70;;;;;;5125264;27;20094;-76
2021/04/04 11:26:59;;;;;;;7.20;4.90;;;11.60;52.80;;;;;;5112241;28;20114;-75
2021/04/04 11:29:26;;;;;;;7.75;5.00;;;11.50;53.40;;;;;;5112634;28;20023;-76
2021/04/04 11:31:53;;;;;;;7.40;5.00;;;11.50;53.20;;;;;;5112047;28;20115;-75
2021/04/04 11:34:33;;;;;;;6.50;4.95;;;11.50;53.20;;;;;;5117453;27;20031;-75
2021/04/04 11:37:01;;;;;;;8.30;4.60;;;11.60;52.20;;;;;;5113878;28;20099;-77
2021/04/04 11:39:27;;;;;;;6.85;4.78;;;11.40;52.80;;;;;;5107396;28;20028;-76
2021/04/04 11:41:55;;;;;;;9.23;5.47;;;11.50;52.10;;;;;;5112285;28;20027;-76
2021/04/04 11:44:35;;;;;;;8.70;5.97;;;11.50;52.90;;;;;;5111947;28;20015;-75
2021/04/04 11:47:21;;;;;;;9.25;5.50;;;11.50;52.60;;;;;;5104322;28;20366;-76
2021/04/04 11:49:52;;;;;;;12.30;6.38;;;11.40;52.90;;;;;;5111831;28;20062;-75
2021/04/04 11:52:17;;;;;;;9.43;6.20;;;11.50;53.20;;;;;;5112068;28;20046;-76
2021/04/04 11:54:46;;;;;;;7.60;5.38;;;11.60;53.10;;;;;;5111618;28;20020;-76
2021/04/04 11:57:13;;;;;;;10.85;5.90;;;11.50;53.20;;;;;;5111550;28;20110;-76
2021/04/04 11:59:38;;;;;;;10.20;5.47;;;11.40;53.90;;;;;;5111436;28;20015;-75
2021/04/04 12:02:05;;;;;;;7.72;5.40;;;11.40;54.90;;;;;;5112592;28;20024;-76
2021/04/04 12:04:46;;;;;;;8.98;5.45;;;11.30;57.00;;;;;;5112591;28;20098;-76
2021/04/04 12:07:14;;;;;;;8.80;5.82;;;11.20;57.70;;;;;;5113383;28;20046;-75
2021/04/04 12:09:42;;;;;;;8.73;6.43;;;11.10;57.90;;;;;;5111804;28;20048;-75
2021/04/04 12:12:08;;;;;;;10.43;5.93;;;11.10;58.60;;;;;;5112088;28;20473;-75
2021/04/04 12:14:53;;;;;;;8.82;6.00;;;11.00;58.50;;;;;;5111850;28;20114;-75
2021/04/04 12:17:28;;;;;;;14.30;9.23;;;11.10;59.10;;;;;;5112170;28;20070;-75
2021/04/04 12:19:55;;;;;;;22.35;11.50;;;11.10;59.20;;;;;;5112053;28;20486;-75
2021/04/04 12:22:42;;;;;;;12.48;7.57;;;11.10;59.60;;;;;;5112782;28;20030;-76
2021/04/04 12:25:23;;;;;;;11.38;6.30;;;11.30;59.10;;;;;;5113873;28;20023;-76
2021/04/04 12:27:51;;;;;;;10.90;6.88;;;11.50;58.70;;;;;;5112674;28;20153;-75
2021/04/04 12:30:23;;;;;;;8.10;5.63;;;11.60;58.20;;;;;;5113559;28;20038;-75
2021/04/04 12:33:23;;;;;;;7.78;5.28;;;11.90;57.50;;;;;;5116717;28;20019;-75
2021/04/04 12:35:50;;;;;;;10.55;7.22;;;12.20;57.00;;;;;;5116706;28;20023;-75
2021/04/04 12:38:29;;;;;;;12.32;8.60;;;12.40;54.90;;;;;;5117651;28;20020;-76
2021/04/04 12:41:01;;;;;;;15.98;9.80;;;12.50;54.40;;;;;;5116346;28;20031;-76
2021/04/04 12:43:27;;;;;;;10.50;7.78;;;12.40;55.20;;;;;;5116544;28;20105;-76
2021/04/04 12:45:53;;;;;;;10.45;6.55;;;12.40;54.30;;;;;;5116355;28;20034;-75
2021/04/04 12:48:21;;;;;;;7.75;5.38;;;12.30;54.40;;;;;;5116311;28;20027;-75
2021/04/04 12:50:49;;;;;;;8.57;5.60;;;12.30;54.30;;;;;;5116588;28;20023;-75
2021/04/04 12:53:24;;;;;;;10.40;6.97;;;12.30;53.40;;;;;;5116199;28;20030;-75
2021/04/04 12:55:51;;;;;;;12.65;6.22;;;12.20;54.20;;;;;;5117384;28;20030;-76
2021/04/04 12:58:17;;;;;;;9.27;5.55;;;12.10;54.30;;;;;;5117269;28;20016;-76
2021/04/04 13:00:46;;;;;;;9.93;5.70;;;12.10;55.00;;;;;;5116059;28;20034;-75
2021/04/04 13:03:16;;;;;;;8.68;5.53;;;12.30;54.50;;;;;;5116079;28;20419;-75
2021/04/04 13:05:52;;;;;;;7.32;4.90;;;12.40;53.70;;;;;;5115969;28;20023;-75